createdAt,value
2022-10-12T00:01:59.331Z,78.90
2022-10-12T00:04:00.940Z,72.82
2022-10-12T00:06:03.745Z,71.50
2022-10-12T00:08:05.314Z,57.55
2022-10-12T00:10:07.147Z,51.30
2022-10-12T00:12:08.709Z,48.50
2022-10-12T00:14:10.229Z,55.90
2022-10-12T00:16:19.793Z,44.55
2022-10-12T00:18:21.885Z,49.55
2022-10-12T00:20:23.369Z,56.25
2022-10-12T00:22:24.921Z,47.67
2022-10-12T00:24:26.490Z,48.80
2022-10-12T00:26:29.470Z,55.45
2022-10-12T00:28:31.891Z,46.60
2022-10-12T00:30:34.764Z,46.95
2022-10-12T00:32:36.312Z,40.20
2022-10-12T00:34:37.790Z,43.80
2022-10-12T00:36:39.338Z,52.95
2022-10-12T00:38:41.045Z,48.40
2022-10-12T00:40:42.756Z,46.38
2022-10-12T00:42:44.209Z,46.78
2022-10-12T00:44:48.170Z,46.20
2022-10-12T00:46:49.686Z,50.63
2022-10-12T00:48:56.602Z,65.22
2022-10-12T00:51:01.490Z,61.50
2022-10-12T00:53:12.596Z,51.35
2022-10-12T00:55:18.214Z,56.13
2022-10-12T00:57:21.632Z,50.70
2022-10-12T00:59:28.568Z,46.20
2022-10-12T01:01:34.492Z,47.05
2022-10-12T01:03:36.586Z,51.97
2022-10-12T01:05:39.921Z,49.08
2022-10-12T01:07:41.426Z,50.08
2022-10-12T01:09:43.091Z,52.22
2022-10-12T01:11:44.665Z,52.50
2022-10-12T01:13:46.221Z,47.67
2022-10-12T01:16:28.727Z,43.88
2022-10-12T01:18:40.020Z,44.88
2022-10-12T01:21:10.049Z,47.58
2022-10-12T01:23:17.401Z,46.88
2022-10-12T01:26:05.458Z,54.38
2022-10-12T01:28:22.306Z,50.35
2022-10-12T01:30:33.453Z,44.95
2022-10-12T01:32:49.482Z,43.97
2022-10-12T01:35:07.411Z,50.22
2022-10-12T01:37:26.621Z,47.95
2022-10-12T01:39:43.790Z,48.53
2022-10-12T01:41:49.898Z,52.50
2022-10-12T01:43:51.785Z,54.00
2022-10-12T01:45:53.328Z,44.95
2022-10-12T01:47:55.522Z,46.95
2022-10-12T01:49:57.956Z,50.72
2022-10-12T01:52:13.664Z,47.90
2022-10-12T01:54:39.977Z,50.75
2022-10-12T01:56:56.774Z,49.00
2022-10-12T01:59:32.283Z,47.05
2022-10-12T02:01:43.059Z,48.28
2022-10-12T02:03:57.843Z,57.45
2022-10-12T02:06:19.454Z,57.70
2022-10-12T02:08:34.411Z,58.47
2022-10-12T02:10:44.490Z,53.63
2022-10-12T02:12:48.115Z,56.05
2022-10-12T02:14:56.412Z,48.00
2022-10-12T02:17:04.663Z,46.25
2022-10-12T02:19:09.525Z,46.88
2022-10-12T02:21:16.181Z,51.22
2022-10-12T02:23:19.310Z,50.92
2022-10-12T02:25:23.709Z,45.65
2022-10-12T02:27:27.093Z,46.03
2022-10-12T02:29:37.905Z,52.40
2022-10-12T02:32:02.384Z,54.05
2022-10-12T02:34:18.198Z,56.00
2022-10-12T02:36:27.830Z,50.30
2022-10-12T02:38:35.032Z,49.40
2022-10-12T02:40:50.360Z,53.45
2022-10-12T02:43:11.845Z,59.15
2022-10-12T02:45:14.832Z,45.75
2022-10-12T02:47:17.090Z,47.83
2022-10-12T02:49:20.215Z,44.85
2022-10-12T02:51:22.210Z,45.25
2022-10-12T02:53:24.922Z,41.97
2022-10-12T02:55:26.462Z,48.40
2022-10-12T02:57:27.949Z,56.92
2022-10-12T02:59:29.460Z,64.22
2022-10-12T03:01:31.029Z,62.22
2022-10-12T03:03:32.540Z,63.45
2022-10-12T03:05:34.039Z,58.88
2022-10-12T03:07:35.728Z,65.07
2022-10-12T03:09:37.369Z,71.10
2022-10-12T03:11:43.771Z,66.13
2022-10-12T03:13:45.357Z,50.85
2022-10-12T03:15:46.854Z,50.97
2022-10-12T03:17:48.361Z,59.95
2022-10-12T03:19:49.851Z,71.85
2022-10-12T03:21:51.346Z,66.05
2022-10-12T03:23:52.811Z,72.78
2022-10-12T03:25:54.302Z,63.97
2022-10-12T03:27:55.811Z,61.60
2022-10-12T03:29:57.312Z,48.85
2022-10-12T03:31:58.773Z,47.35
2022-10-12T03:34:00.574Z,51.88
2022-10-12T03:36:02.044Z,47.00
2022-10-12T03:38:04.297Z,57.55
2022-10-12T03:40:06.445Z,50.40
2022-10-12T03:42:07.922Z,45.17
2022-10-12T03:44:09.491Z,42.92
2022-10-12T03:46:11.002Z,46.90
2022-10-12T03:48:12.518Z,47.88
2022-10-12T03:50:14.150Z,50.28
2022-10-12T03:52:15.682Z,47.28
2022-10-12T03:54:17.132Z,43.13
2022-10-12T03:56:18.624Z,51.83
2022-10-12T03:58:20.176Z,58.05
2022-10-12T04:00:22.374Z,56.80
2022-10-12T04:02:23.891Z,71.18
2022-10-12T04:04:25.442Z,81.35
2022-10-12T04:06:26.959Z,73.57
2022-10-12T04:08:28.620Z,77.32
2022-10-12T04:10:30.123Z,73.45
2022-10-12T04:12:31.610Z,66.00
2022-10-12T04:14:33.080Z,64.95
2022-10-12T04:16:34.551Z,51.95
2022-10-12T04:18:36.342Z,52.97
2022-10-12T04:20:37.895Z,52.10
2022-10-12T04:22:40.074Z,71.20
2022-10-12T04:24:41.561Z,59.75
2022-10-12T04:26:43.123Z,49.38
2022-10-12T04:28:44.664Z,49.53
2022-10-12T04:30:46.488Z,51.72
2022-10-12T04:32:48.051Z,47.25
2022-10-12T04:34:49.507Z,55.20
2022-10-12T04:36:50.982Z,58.22
2022-10-12T04:38:57.050Z,85.97
2022-10-12T04:41:01.620Z,100.28
2022-10-12T04:43:03.166Z,121.15
2022-10-12T04:45:05.250Z,102.03
2022-10-12T04:47:06.783Z,81.68
2022-10-12T04:49:08.272Z,66.20
2022-10-12T04:51:09.939Z,54.85
2022-10-12T04:53:11.657Z,66.82
2022-10-12T04:55:13.220Z,66.40
2022-10-12T04:57:14.733Z,59.95
2022-10-12T04:59:16.257Z,51.35
2022-10-12T05:01:17.827Z,50.15
2022-10-12T05:03:19.405Z,54.47
2022-10-12T05:05:20.990Z,70.22
2022-10-12T05:07:22.611Z,79.72
2022-10-12T05:09:24.091Z,85.45
2022-10-12T05:11:25.782Z,63.58
2022-10-12T05:13:28.697Z,59.95
2022-10-12T05:15:30.378Z,51.20
2022-10-12T05:17:31.854Z,57.53
2022-10-12T05:19:33.331Z,58.08
2022-10-12T05:21:34.808Z,56.47
2022-10-12T05:23:36.439Z,53.10
2022-10-12T05:25:38.458Z,68.05
2022-10-12T05:27:40.471Z,93.13
2022-10-12T05:29:42.290Z,49.05
2022-10-12T05:31:44.275Z,51.95
2022-10-12T05:33:45.823Z,52.38
2022-10-12T05:35:52.145Z,58.20
2022-10-12T05:37:56.221Z,40.15
2022-10-12T05:39:57.672Z,48.72
2022-10-12T05:41:59.184Z,43.63
2022-10-12T05:44:00.642Z,33.42
2022-10-12T05:46:02.184Z,37.58
2022-10-12T05:48:03.679Z,42.42
2022-10-12T05:50:05.599Z,39.70
2022-10-12T05:52:07.287Z,36.53
2022-10-12T05:54:08.915Z,33.58
2022-10-12T05:56:10.467Z,41.60
2022-10-12T05:58:12.017Z,31.33
2022-10-12T06:00:13.714Z,48.72
2022-10-12T06:02:16.882Z,76.50
2022-10-12T06:04:18.538Z,120.90
2022-10-12T06:06:20.054Z,91.35
2022-10-12T06:08:21.589Z,46.55
2022-10-12T06:10:27.641Z,37.55
2022-10-12T06:12:31.466Z,33.60
2022-10-12T06:14:33.012Z,32.75
2022-10-12T06:16:34.529Z,23.33
2022-10-12T06:18:36.012Z,31.42
2022-10-12T06:20:37.492Z,31.27
2022-10-12T06:22:39.430Z,23.27
2022-10-12T06:24:41.135Z,26.20
2022-10-12T06:26:42.630Z,22.25
2022-10-12T06:28:44.132Z,22.05
2022-10-12T06:30:46.707Z,21.35
2022-10-12T06:32:48.342Z,29.92
2022-10-12T06:34:49.811Z,36.95
2022-10-12T06:36:52.383Z,41.05
2022-10-12T06:38:53.892Z,44.55
2022-10-12T06:40:55.480Z,27.60
2022-10-12T06:42:58.694Z,27.98
2022-10-12T06:45:00.291Z,41.08
2022-10-12T06:47:01.888Z,28.05
2022-10-12T06:49:03.669Z,36.17
2022-10-12T06:51:05.432Z,33.65
2022-10-12T06:53:07.268Z,28.83
2022-10-12T06:55:09.018Z,29.05
2022-10-12T06:57:10.553Z,25.48
2022-10-12T06:59:13.216Z,26.80
2022-10-12T07:01:14.921Z,24.42
2022-10-12T07:03:17.899Z,26.45
2022-10-12T07:05:21.106Z,27.95
2022-10-12T07:07:22.626Z,33.83
2022-10-12T07:09:24.121Z,55.13
2022-10-12T07:11:25.597Z,28.98
2022-10-12T07:13:27.089Z,24.23
2022-10-12T07:15:28.547Z,25.55
2022-10-12T07:17:30.014Z,27.70
2022-10-12T07:19:31.682Z,30.05
2022-10-12T07:21:33.188Z,27.52
2022-10-12T07:23:35.680Z,31.08
2022-10-12T07:25:37.175Z,27.83
2022-10-12T07:27:39.023Z,33.47
2022-10-12T07:29:40.736Z,34.90
2022-10-12T07:31:42.415Z,30.98
2022-10-12T07:33:44.560Z,29.65
2022-10-12T07:36:13.157Z,30.60
2022-10-12T07:38:16.037Z,29.48
2022-10-12T07:40:17.503Z,33.60
2022-10-12T07:42:19.658Z,26.02
2022-10-12T07:44:22.741Z,27.65
2022-10-12T07:46:25.437Z,28.95
2022-10-12T07:48:26.999Z,31.10
2022-10-12T07:50:28.713Z,24.35
2022-10-12T07:52:32.446Z,26.25
2022-10-12T07:54:33.914Z,38.38
2022-10-12T07:56:35.926Z,29.63
2022-10-12T07:58:37.500Z,28.88
2022-10-12T08:00:39.719Z,27.50
2022-10-12T08:02:41.235Z,25.17
2022-10-12T08:04:42.795Z,24.63
2022-10-12T08:06:44.240Z,25.85
2022-10-12T08:08:45.802Z,25.42
2022-10-12T08:10:47.792Z,28.23
2022-10-12T08:12:52.034Z,25.35
2022-10-12T08:14:53.951Z,25.95
2022-10-12T08:16:55.405Z,21.92
2022-10-12T08:18:56.899Z,27.15
2022-10-12T08:20:59.225Z,26.00
2022-10-12T08:23:00.718Z,26.38
2022-10-12T08:25:02.207Z,23.73
2022-10-12T08:27:03.805Z,33.30
2022-10-12T08:29:06.641Z,22.90
2022-10-12T08:31:14.112Z,27.48
2022-10-12T08:33:16.056Z,31.05
2022-10-12T08:35:17.519Z,32.25
2022-10-12T08:37:19.082Z,37.45
2022-10-12T08:39:21.174Z,36.03
2022-10-12T08:41:47.304Z,41.00
2022-10-12T08:44:18.869Z,32.75
2022-10-12T08:46:22.077Z,29.70
2022-10-12T08:48:32.090Z,31.60
2022-10-12T08:50:37.174Z,25.58
2022-10-12T08:52:49.046Z,33.47
2022-10-12T08:54:50.757Z,24.75
2022-10-12T08:56:56.782Z,18.65
2022-10-12T08:58:58.325Z,20.45
2022-10-12T09:01:26.136Z,21.50
2022-10-12T09:03:33.499Z,15.13
2022-10-12T09:05:44.366Z,24.33
2022-10-12T09:07:57.408Z,29.95
2022-10-12T09:10:20.653Z,34.05
2022-10-12T09:12:49.624Z,35.58
2022-10-12T09:14:55.862Z,32.83
2022-10-12T09:16:58.091Z,34.80
2022-10-12T09:19:04.782Z,53.03
2022-10-12T09:21:09.257Z,33.28
2022-10-12T09:23:27.185Z,28.08
2022-10-12T09:25:29.323Z,35.08
2022-10-12T09:27:32.070Z,29.75
2022-10-12T09:29:33.600Z,41.30
2022-10-12T09:32:09.071Z,23.60
2022-10-12T09:34:14.380Z,27.65
2022-10-12T09:36:21.703Z,28.45
2022-10-12T09:38:24.617Z,28.08
2022-10-12T09:40:30.978Z,27.70
2022-10-12T09:42:34.532Z,33.83
2022-10-12T09:44:43.119Z,28.83
2022-10-12T09:47:06.305Z,16.60
2022-10-12T09:49:07.924Z,17.23
2022-10-12T09:51:13.951Z,16.33
2022-10-12T09:53:23.166Z,16.05
2022-10-12T09:57:39.547Z,12.50
2022-10-12T09:59:45.249Z,16.00
2022-10-12T10:02:10.871Z,17.63
2022-10-12T10:04:23.268Z,12.43
2022-10-12T10:06:25.548Z,19.25
2022-10-12T10:08:27.084Z,9.68
2022-10-12T10:10:30.612Z,11.90
2022-10-12T10:12:33.183Z,11.63
2022-10-12T10:14:35.777Z,10.30
2022-10-12T10:16:49.029Z,9.93
2022-10-12T10:18:57.423Z,14.00
2022-10-12T10:21:00.282Z,12.15
2022-10-12T10:23:04.708Z,12.57
2022-10-12T10:25:07.052Z,9.02
2022-10-12T10:27:28.907Z,13.02
2022-10-12T10:29:33.686Z,10.90
2022-10-12T10:31:35.755Z,7.53
2022-10-12T10:33:37.546Z,9.20
2022-10-12T10:35:39.127Z,12.63
2022-10-12T10:37:48.192Z,7.57
2022-10-12T10:39:53.006Z,10.20
2022-10-12T10:41:56.170Z,14.65
2022-10-12T10:43:57.975Z,5.88
2022-10-12T10:46:04.448Z,11.38
2022-10-12T10:48:11.586Z,13.38
2022-10-12T10:50:27.263Z,10.15
2022-10-12T10:52:30.282Z,16.73
2022-10-12T10:54:35.167Z,22.50
2022-10-12T10:56:36.699Z,15.13
2022-10-12T10:58:45.717Z,11.70
2022-10-12T11:00:48.947Z,7.10
2022-10-12T11:03:01.201Z,10.05
2022-10-12T11:05:26.944Z,11.32
2022-10-12T11:07:37.675Z,12.18
2022-10-12T11:09:44.111Z,7.93
2022-10-12T11:11:53.783Z,14.07
2022-10-12T11:14:01.093Z,10.20
2022-10-12T11:16:26.647Z,6.35
2022-10-12T11:18:44.521Z,10.20
2022-10-12T11:20:51.829Z,7.72
2022-10-12T11:23:01.660Z,11.93
2022-10-12T11:27:34.481Z,8.27
2022-10-12T11:29:37.058Z,9.05
2022-10-12T11:31:44.343Z,8.25
2022-10-12T11:33:47.281Z,9.38
2022-10-12T11:35:49.939Z,12.68
2022-10-12T11:37:57.819Z,12.25
2022-10-12T11:40:02.628Z,11.13
2022-10-12T11:42:21.275Z,9.23
2022-10-12T11:44:50.547Z,9.10
2022-10-12T11:47:06.524Z,8.80
2022-10-12T11:49:16.263Z,10.00
2022-10-12T11:53:27.203Z,9.30
2022-10-12T11:56:16.881Z,7.88
2022-10-12T12:00:47.033Z,15.18
2022-10-12T12:02:55.890Z,10.10
2022-10-12T12:04:59.067Z,12.52
2022-10-12T12:07:03.037Z,9.85
2022-10-12T12:09:04.484Z,10.10
2022-10-12T12:11:19.593Z,6.45
2022-10-12T12:13:23.827Z,10.60
2022-10-12T12:15:25.312Z,9.18
2022-10-12T12:17:32.166Z,7.45
2022-10-12T12:19:39.260Z,12.10
2022-10-12T12:22:19.801Z,12.20
2022-10-12T12:24:23.517Z,8.75
2022-10-12T12:26:28.742Z,7.93
2022-10-12T12:28:32.573Z,6.55
2022-10-12T12:30:37.552Z,10.00
2022-10-12T12:32:44.925Z,12.20
2022-10-12T12:35:00.632Z,9.07
2022-10-12T12:37:12.183Z,8.95
2022-10-12T12:39:32.259Z,8.30
2022-10-12T12:41:57.645Z,7.05
2022-10-12T12:44:04.091Z,13.18
2022-10-12T12:46:08.345Z,6.97
2022-10-12T12:48:10.937Z,12.65
2022-10-12T12:50:35.640Z,9.48
2022-10-12T12:52:40.862Z,11.35
2022-10-12T12:55:10.527Z,7.07
2022-10-12T12:57:38.059Z,7.38
2022-10-12T12:59:58.502Z,13.93
2022-10-12T13:02:38.467Z,22.10
2022-10-12T13:07:29.654Z,8.52
2022-10-12T13:09:49.354Z,12.48
2022-10-12T13:11:56.824Z,22.38
2022-10-12T13:14:13.661Z,21.13
2022-10-12T13:17:30.754Z,12.38
2022-10-12T13:19:04.151Z,11.30
2022-10-12T13:21:08.299Z,10.77
2022-10-12T13:23:18.040Z,11.45
2022-10-12T13:25:36.264Z,10.70
2022-10-12T13:27:48.480Z,12.15
2022-10-12T13:30:10.189Z,10.43
2022-10-12T13:33:03.631Z,7.65
2022-10-12T13:35:14.344Z,10.10
2022-10-12T13:37:16.994Z,8.55
2022-10-12T13:39:21.082Z,7.60
2022-10-12T13:41:23.889Z,8.38
2022-10-12T13:43:28.361Z,11.63
2022-10-12T13:45:29.868Z,12.13
2022-10-12T13:47:33.357Z,8.45
2022-10-12T13:49:43.222Z,9.75
2022-10-12T13:51:47.726Z,8.23
2022-10-12T13:53:49.239Z,12.82
2022-10-12T13:55:58.611Z,8.93
2022-10-12T13:58:00.189Z,17.02
2022-10-12T14:00:19.049Z,17.67
2022-10-12T14:02:26.216Z,11.85
2022-10-12T14:04:32.927Z,9.75
2022-10-12T14:06:38.041Z,14.23
2022-10-12T14:08:39.790Z,10.95
2022-10-12T14:10:44.476Z,10.02
2022-10-12T14:12:48.634Z,11.27
2022-10-12T14:14:50.508Z,10.30
2022-10-12T14:16:52.485Z,11.52
2022-10-12T14:18:54.077Z,12.18
2022-10-12T14:21:16.336Z,11.48
2022-10-12T14:23:23.088Z,17.48
2022-10-12T14:25:30.384Z,12.85
2022-10-12T14:27:38.176Z,14.52
2022-10-12T14:29:45.882Z,8.52
2022-10-12T14:31:53.325Z,12.65
2022-10-12T14:33:55.121Z,10.73
2022-10-12T14:36:15.478Z,11.88
2022-10-12T14:38:38.258Z,9.75
2022-10-12T14:40:40.067Z,11.82
2022-10-12T14:42:54.809Z,15.23
2022-10-12T14:44:56.468Z,23.40
2022-10-12T14:47:09.486Z,28.33
2022-10-12T14:49:21.025Z,28.85
2022-10-12T14:51:22.530Z,22.23
2022-10-12T14:53:29.213Z,16.67
2022-10-12T14:55:34.040Z,16.92
2022-10-12T14:57:35.529Z,27.38
2022-10-12T14:59:37.096Z,61.33
2022-10-12T15:01:41.977Z,57.08
2022-10-12T15:03:44.788Z,119.78
2022-10-12T15:05:46.253Z,110.18
2022-10-12T15:07:49.520Z,76.82
2022-10-12T15:09:54.310Z,49.70
2022-10-12T15:11:56.942Z,74.07
2022-10-12T15:13:58.658Z,21.70
2022-10-12T15:16:01.528Z,21.08
2022-10-12T15:18:03.228Z,22.63
2022-10-12T15:20:05.083Z,20.08
2022-10-12T15:22:07.810Z,14.35
2022-10-12T15:24:15.272Z,17.40
2022-10-12T15:26:18.388Z,15.40
2022-10-12T15:28:21.308Z,16.15
2022-10-12T15:30:22.876Z,15.20
2022-10-12T15:32:24.637Z,16.40
2022-10-12T15:34:27.333Z,15.95
2022-10-12T15:36:28.801Z,21.90
2022-10-12T15:38:30.270Z,22.17
2022-10-12T15:40:33.527Z,31.63
2022-10-12T15:42:35.648Z,40.92
2022-10-12T15:44:40.831Z,52.53
2022-10-12T15:46:43.766Z,68.18
2022-10-12T15:48:45.296Z,36.17
2022-10-12T15:50:49.191Z,56.70
2022-10-12T15:52:50.842Z,44.28
2022-10-12T15:54:52.340Z,33.65
2022-10-12T15:56:54.112Z,36.72
2022-10-12T15:58:55.792Z,52.33
2022-10-12T16:00:57.644Z,37.40
2022-10-12T16:03:00.555Z,31.92
2022-10-12T16:05:02.099Z,36.63
2022-10-12T16:07:03.664Z,37.55
2022-10-12T16:09:05.168Z,32.13
2022-10-12T16:11:11.676Z,25.83
2022-10-12T16:13:14.063Z,32.33
2022-10-12T16:15:19.222Z,31.35
2022-10-12T16:17:20.706Z,31.98
2022-10-12T16:19:22.177Z,37.88
2022-10-12T16:21:23.742Z,46.90
2022-10-12T16:23:28.254Z,46.05
2022-10-12T16:25:29.767Z,64.28
2022-10-12T16:27:31.387Z,59.28
2022-10-12T16:29:32.843Z,64.72
2022-10-12T16:31:34.340Z,80.35
2022-10-12T16:33:35.863Z,74.07
2022-10-12T16:35:39.941Z,79.50
2022-10-12T16:37:41.689Z,119.53
2022-10-12T16:39:43.244Z,106.25
2022-10-12T16:41:44.765Z,94.97
2022-10-12T16:43:46.253Z,98.60
2022-10-12T16:45:55.336Z,94.05
2022-10-12T16:47:56.803Z,101.70
2022-10-12T16:49:58.293Z,98.55
2022-10-12T16:51:59.763Z,90.60
2022-10-12T16:54:01.241Z,89.45
2022-10-12T16:56:03.826Z,102.20
2022-10-12T16:58:05.454Z,81.75
2022-10-12T17:00:09.506Z,82.07
2022-10-12T17:02:11.967Z,117.13
2022-10-12T17:04:13.951Z,225.50
2022-10-12T17:06:15.443Z,79.60
2022-10-12T17:08:16.981Z,275.23
2022-10-12T17:10:18.564Z,140.60
2022-10-12T17:12:20.124Z,108.43
2022-10-12T17:14:21.652Z,122.47
2022-10-12T17:16:42.339Z,123.00
2022-10-12T17:18:43.776Z,107.00
2022-10-12T17:20:47.207Z,116.60
2022-10-12T17:22:50.967Z,111.13
2022-10-12T17:24:52.439Z,109.13
2022-10-12T17:26:54.652Z,119.30
2022-10-12T17:28:56.239Z,140.13
2022-10-12T17:30:57.765Z,108.30
2022-10-12T17:32:59.409Z,97.15
2022-10-12T17:35:00.880Z,81.47
2022-10-12T17:37:03.344Z,78.68
2022-10-12T17:39:04.832Z,64.40
2022-10-12T17:41:06.418Z,103.22
2022-10-12T17:43:07.884Z,154.80
2022-10-12T17:45:09.879Z,179.05
2022-10-12T17:47:11.421Z,146.60
2022-10-12T17:49:15.570Z,312.55
2022-10-12T17:51:17.056Z,201.50
2022-10-12T17:53:18.517Z,172.68
2022-10-12T17:55:43.404Z,164.93
2022-10-12T17:57:41.515Z,127.63
2022-10-12T17:59:42.984Z,138.70
2022-10-12T18:01:45.098Z,118.57
2022-10-12T18:03:47.786Z,123.22
2022-10-12T18:05:49.312Z,150.75
2022-10-12T18:07:50.803Z,129.00
2022-10-12T18:09:52.548Z,140.77
2022-10-12T18:11:54.492Z,105.75
2022-10-12T18:13:57.087Z,118.63
2022-10-12T18:15:58.809Z,118.68
2022-10-12T18:18:00.412Z,91.55
2022-10-12T18:20:02.023Z,51.92
2022-10-12T18:22:03.494Z,67.22
2022-10-12T18:24:12.310Z,73.30
2022-10-12T18:26:21.935Z,108.38
2022-10-12T18:28:23.415Z,118.10
2022-10-12T18:30:24.895Z,125.50
2022-10-12T18:32:26.508Z,109.07
2022-10-12T18:34:29.382Z,152.40
2022-10-12T18:36:33.816Z,144.80
2022-10-12T18:38:35.351Z,81.88
2022-10-12T18:40:41.859Z,61.60
2022-10-12T18:42:43.742Z,118.57
2022-10-12T18:44:45.225Z,130.82
2022-10-12T18:46:46.759Z,147.93
2022-10-12T18:48:48.399Z,129.30
2022-10-12T18:50:49.917Z,87.22
2022-10-12T18:52:52.961Z,122.60
2022-10-12T18:54:54.584Z,186.85
2022-10-12T18:56:56.081Z,118.40
2022-10-12T18:58:59.695Z,179.30
2022-10-12T19:01:01.447Z,161.88
2022-10-12T19:03:03.040Z,178.75
2022-10-12T19:05:04.999Z,162.48
2022-10-12T19:07:06.827Z,293.98
2022-10-12T19:09:12.190Z,315.10
2022-10-12T19:11:14.933Z,378.15
2022-10-12T19:13:16.393Z,248.52
2022-10-12T19:15:17.952Z,203.50
2022-10-12T19:17:19.483Z,164.73
2022-10-12T19:19:21.704Z,180.90
2022-10-12T19:21:23.396Z,229.55
2022-10-12T19:23:25.021Z,206.25
2022-10-12T19:25:26.557Z,182.05
2022-10-12T19:27:28.045Z,173.48
2022-10-12T19:29:29.884Z,169.68
2022-10-12T19:31:37.552Z,166.90
2022-10-12T19:33:39.161Z,161.70
2022-10-12T19:35:40.702Z,197.93
2022-10-12T19:37:42.188Z,166.82
2022-10-12T19:39:46.957Z,175.60
2022-10-12T19:41:50.201Z,151.50
2022-10-12T19:43:53.241Z,130.35
2022-10-12T19:45:55.359Z,130.82
2022-10-12T19:47:56.897Z,122.88
2022-10-12T19:49:58.431Z,130.57
2022-10-12T19:51:59.939Z,129.35
2022-10-12T19:54:04.223Z,118.40
2022-10-12T19:56:14.219Z,208.68
2022-10-12T19:58:15.769Z,129.27
2022-10-12T20:00:18.533Z,89.70
2022-10-12T20:02:20.401Z,82.55
2022-10-12T20:04:22.362Z,48.58
2022-10-12T20:06:26.376Z,96.50
2022-10-12T20:08:27.983Z,87.60
2022-10-12T20:10:29.476Z,76.20
2022-10-12T20:12:30.942Z,124.30
2022-10-12T20:14:32.492Z,105.40
2022-10-12T20:16:35.229Z,101.13
2022-10-12T20:18:37.110Z,140.73
2022-10-12T20:20:42.541Z,115.78
2022-10-12T20:22:43.999Z,158.63
2022-10-12T20:24:45.635Z,131.90
2022-10-12T20:26:47.181Z,77.13
2022-10-12T20:28:49.988Z,62.83
2022-10-12T20:30:51.536Z,83.10
2022-10-12T20:32:55.554Z,97.03
2022-10-12T20:34:57.402Z,101.45
2022-10-12T20:36:58.909Z,114.18
2022-10-12T20:39:00.867Z,350.75
2022-10-12T20:41:08.017Z,475.42
2022-10-12T20:43:09.630Z,264.05
2022-10-12T20:45:14.217Z,203.95
2022-10-12T20:47:16.092Z,109.68
2022-10-12T20:49:18.017Z,72.63
2022-10-12T20:51:25.140Z,65.47
2022-10-12T20:53:26.665Z,39.75
2022-10-12T20:55:28.183Z,41.67
2022-10-12T20:57:29.748Z,44.42
2022-10-12T20:59:31.679Z,40.88
2022-10-12T21:01:33.218Z,68.88
2022-10-12T21:03:34.805Z,85.88
2022-10-12T21:05:36.327Z,61.75
2022-10-12T21:07:37.841Z,71.07
2022-10-12T21:09:39.367Z,82.57
2022-10-12T21:11:40.991Z,61.78
2022-10-12T21:13:42.611Z,68.65
2022-10-12T21:15:52.825Z,70.82
2022-10-12T21:17:54.295Z,100.32
2022-10-12T21:19:55.787Z,86.13
2022-10-12T21:21:57.269Z,104.43
2022-10-12T21:24:00.730Z,112.47
2022-10-12T21:26:16.350Z,121.45
2022-10-12T21:28:18.712Z,94.68
2022-10-12T21:30:20.211Z,104.55
2022-10-12T21:32:21.693Z,109.35
2022-10-12T21:34:23.786Z,93.45
2022-10-12T21:36:27.076Z,97.63
2022-10-12T21:38:30.562Z,84.82
2022-10-12T21:40:32.841Z,75.93
2022-10-12T21:42:34.329Z,78.20
2022-10-12T21:44:35.812Z,91.85
2022-10-12T21:46:38.080Z,97.75
2022-10-12T21:48:40.380Z,79.60
2022-10-12T21:50:41.937Z,82.70
2022-10-12T21:52:43.393Z,144.50
2022-10-12T21:54:45.727Z,173.80
2022-10-12T21:56:47.214Z,119.43
2022-10-12T21:58:49.549Z,69.63
2022-10-12T22:00:51.137Z,75.55
2022-10-12T22:02:52.646Z,105.32
2022-10-12T22:04:54.114Z,106.00
2022-10-12T22:07:00.328Z,61.67
2022-10-12T22:09:05.467Z,65.97
2022-10-12T22:11:09.470Z,60.38
2022-10-12T22:13:10.939Z,53.53
2022-10-12T22:15:12.465Z,55.38
2022-10-12T22:17:13.936Z,68.15
2022-10-12T22:19:20.181Z,75.63
2022-10-12T22:21:21.628Z,53.63
2022-10-12T22:23:23.237Z,42.53
2022-10-12T22:25:24.881Z,36.70
2022-10-12T22:27:26.422Z,49.05
2022-10-12T22:29:27.892Z,54.28
2022-10-12T22:31:29.462Z,54.75
2022-10-12T22:33:30.925Z,51.63
2022-10-12T22:35:32.415Z,49.13
2022-10-12T22:37:33.901Z,53.47
2022-10-12T22:39:35.406Z,70.97
2022-10-12T22:41:36.940Z,66.20
2022-10-12T22:43:38.880Z,76.75
2022-10-12T22:45:40.340Z,73.80
2022-10-12T22:47:41.818Z,58.63
2022-10-12T22:49:43.316Z,52.97
2022-10-12T22:51:44.824Z,47.47
2022-10-12T22:53:46.346Z,44.05
2022-10-12T22:55:48.458Z,56.05
2022-10-12T22:57:49.961Z,63.15
2022-10-12T22:59:51.489Z,60.65
2022-10-12T23:01:52.958Z,56.25
2022-10-12T23:03:56.009Z,50.53
2022-10-12T23:05:57.704Z,73.75
2022-10-12T23:07:59.170Z,82.05
2022-10-12T23:10:00.707Z,73.70
2022-10-12T23:12:02.240Z,52.92
2022-10-12T23:14:03.712Z,63.38
2022-10-12T23:16:08.126Z,43.35
2022-10-12T23:18:09.645Z,47.83
2022-10-12T23:20:11.539Z,48.00
2022-10-12T23:22:13.076Z,59.05
2022-10-12T23:24:14.581Z,60.45
2022-10-12T23:26:21.942Z,52.83
2022-10-12T23:28:23.497Z,57.75
2022-10-12T23:30:24.993Z,60.15
2022-10-12T23:32:28.850Z,60.65
2022-10-12T23:34:30.405Z,55.70
2022-10-12T23:36:32.341Z,52.75
2022-10-12T23:38:35.373Z,36.42
2022-10-12T23:40:36.848Z,49.72
2022-10-12T23:42:38.463Z,57.42
2022-10-12T23:44:39.966Z,48.63
2022-10-12T23:46:41.644Z,42.45
2022-10-12T23:48:43.109Z,40.53
2022-10-12T23:50:44.972Z,42.40
2022-10-12T23:52:46.517Z,44.92
2022-10-12T23:54:47.980Z,43.05
2022-10-12T23:56:49.434Z,53.38
2022-10-12T23:58:51.098Z,48.95
